Gedney, New York
Current Conditions -  °F | °C
As of 6:56 AM on Tuesday 27 Jan 2015 (Local Time) from KHPN Reporting Station
Light Snow Light Snow  
Wind Chill: -2°   Ceiling: 1000
Heat Index: 17°   Visibility: 1mi
Dew Point: 11°   Wind: 29mph
Humidity: 77%   Direction: 340°NNW
Pressure: 29.6"   Gusts: 39mph
Location:  41.0104°N, 73.7454°W
Report Text: KHPN 271156Z 34025G34KT 1SM R16/P6000FT -SN BR OVC010 M08/M12 A2960 RMK AO2 PK WND 34034/1152 FZRAB48E49 SLP037 P0000 60002 70004 T10831117 11050 21083 55006
Loading
Personal Weather Stations






























Interactive Weather Map New forecast layout! Learn more

10-Day Weather Forecast

Advertisements
Track Severe Weather on mobile